Time;durP1;ratioP1;P1;durP2;ratioP2;P2;SDS_P1;SDS_P2;PMS_P1;PMS_P2;Temp;Humidity;BMP_temperature;BMP_pressure;BME280_temperature;BME280_humidity;BME280_pressure;Samples;Min_cycle;Max_cycle;Signal;HPM_P1;HPM_P2
2022/04/27 00:01:53;;;;;;;7.70;5.10;;;17.70;99.90;;;;;;5083139;28;20395;-88
2022/04/27 00:04:20;;;;;;;7.53;4.88;;;17.80;99.90;;;;;;5075839;28;20390;-91
2022/04/27 00:06:47;;;;;;;7.40;4.57;;;17.80;99.90;;;;;;5080178;28;20466;-87
2022/04/27 00:09:14;;;;;;;6.50;4.68;;;17.80;99.90;;;;;;5079564;28;20400;-90
2022/04/27 00:11:41;;;;;;;7.35;4.65;;;17.80;99.90;;;;;;5074367;28;20861;-91
2022/04/27 00:14:08;;;;;;;6.13;4.72;;;17.90;99.90;;;;;;5049710;28;20401;-92
2022/04/27 00:16:35;;;;;;;6.60;4.63;;;17.90;99.90;;;;;;5074678;28;20376;-91
2022/04/27 00:19:02;;;;;;;8.52;4.90;;;17.90;99.90;;;;;;5081487;28;20414;-91
2022/04/27 00:21:29;;;;;;;7.50;4.10;;;17.90;99.90;;;;;;5071017;28;20510;-90
2022/04/27 00:23:59;;;;;;;5.67;3.60;;;17.90;99.90;;;;;;5074382;28;20475;-88
2022/04/27 00:26:26;;;;;;;9.00;3.60;;;18.00;99.90;;;;;;5074581;28;20378;-90
2022/04/27 00:28:53;;;;;;;7.20;3.57;;;18.00;99.90;;;;;;5067491;28;20703;-87
2022/04/27 00:31:20;;;;;;;6.57;3.40;;;18.00;99.90;;;;;;5067161;28;20381;-91
2022/04/27 00:33:47;;;;;;;7.07;3.70;;;18.00;99.90;;;;;;5087179;28;20479;-88
2022/04/27 00:36:14;;;;;;;7.97;3.33;;;18.00;99.90;;;;;;5087338;28;20372;-89
2022/04/27 00:38:41;;;;;;;5.63;3.63;;;18.00;99.90;;;;;;5087037;28;20404;-91
2022/04/27 00:41:08;;;;;;;7.90;3.83;;;18.10;99.90;;;;;;5087152;28;20404;-90
2022/04/27 00:43:38;;;;;;;5.53;3.30;;;18.10;99.90;;;;;;5067070;28;20814;-91
2022/04/27 00:46:05;;;;;;;4.53;2.90;;;18.20;99.90;;;;;;5066754;28;20381;-87
2022/04/27 00:48:32;;;;;;;3.80;2.97;;;18.10;99.90;;;;;;5067005;28;20397;-87
2022/04/27 00:51:03;;;;;;;4.35;3.40;;;18.20;99.90;;;;;;5067396;28;20443;-91
2022/04/27 00:53:30;;;;;;;6.82;3.67;;;18.10;99.90;;;;;;5067360;28;20370;-91
2022/04/27 00:55:59;;;;;;;5.63;3.70;;;18.10;99.90;;;;;;5067347;28;20479;-88
2022/04/27 00:58:26;;;;;;;4.78;3.40;;;18.20;99.90;;;;;;5086489;28;20404;-87
2022/04/27 01:00:55;;;;;;;4.78;3.40;;;18.20;99.90;;;;;;5089301;28;20366;-88
2022/04/27 01:03:25;;;;;;;4.35;3.10;;;18.30;99.90;;;;;;5074396;28;20389;-88
2022/04/27 01:05:52;;;;;;;6.77;3.50;;;18.40;99.90;;;;;;5096650;28;20404;-87
2022/04/27 01:08:23;;;;;;;5.38;3.60;;;18.50;99.90;;;;;;5069672;28;20386;-87
2022/04/27 01:10:50;;;;;;;5.28;3.38;;;18.50;99.90;;;;;;5065722;28;20770;-90
2022/04/27 01:13:17;;;;;;;5.82;3.80;;;18.50;99.90;;;;;;5068455;28;20382;-88
2022/04/27 01:15:44;;;;;;;8.20;4.40;;;18.60;99.90;;;;;;5075245;28;20382;-87
2022/04/27 01:18:12;;;;;;;6.90;4.10;;;18.60;99.90;;;;;;5068104;28;20410;-88
2022/04/27 01:20:44;;;;;;;7.95;4.10;;;18.60;99.90;;;;;;5066642;28;20373;-88
2022/04/27 01:23:15;;;;;;;5.80;3.90;;;18.60;99.90;;;;;;5066537;28;20890;-88
2022/04/27 01:25:54;;;;;;;10.50;5.20;;;18.50;99.90;;;;;;5067591;28;20378;-87
2022/04/27 01:28:26;;;;;;;10.23;5.90;;;18.50;99.90;;;;;;5067276;28;20394;-88
2022/04/27 01:31:02;;;;;;;12.73;6.28;;;18.40;99.90;;;;;;5067558;28;20366;-88
2022/04/27 01:33:30;;;;;;;7.67;5.00;;;18.40;99.90;;;;;;5058718;28;20400;-87
2022/04/27 01:36:00;;;;;;;10.05;5.60;;;18.40;99.90;;;;;;5070577;28;20396;-88
2022/04/27 01:38:33;;;;;;;8.57;5.85;;;18.40;99.90;;;;;;5082112;28;20404;-89
2022/04/27 01:41:02;;;;;;;9.65;6.00;;;18.40;99.90;;;;;;5084368;28;20430;-92
2022/04/27 01:43:29;;;;;;;8.82;4.50;;;18.50;99.90;;;;;;5067462;28;20374;-89
2022/04/27 01:45:57;;;;;;;6.38;4.00;;;18.50;99.90;;;;;;5066993;28;20389;-88
2022/04/27 01:48:24;;;;;;;7.28;4.03;;;18.50;99.90;;;;;;5083880;28;20387;-91
2022/04/27 01:50:51;;;;;;;7.88;3.60;;;18.50;99.90;;;;;;5088222;28;20372;-91
2022/04/27 01:56:03;;;;;;;6.15;2.80;;;18.60;99.90;;;;;;5087321;28;20962;-88
2022/04/27 01:58:31;;;;;;;5.40;2.60;;;18.60;99.90;;;;;;5087154;28;20914;-90
2022/04/27 02:00:58;;;;;;;4.65;2.70;;;18.60;99.90;;;;;;5087002;28;20426;-89
2022/04/27 02:03:25;;;;;;;4.00;3.00;;;18.50;99.90;;;;;;5083968;28;20506;-90
2022/04/27 02:05:52;;;;;;;3.70;2.70;;;18.50;99.90;;;;;;5070729;28;20485;-91
2022/04/27 02:08:20;;;;;;;4.95;2.85;;;18.50;99.90;;;;;;5074103;28;20384;-89
2022/04/27 02:10:47;;;;;;;4.13;2.47;;;18.50;99.90;;;;;;5071513;28;20382;-91
2022/04/27 02:13:14;;;;;;;4.35;2.38;;;18.50;99.90;;;;;;5056792;28;20415;-91
2022/04/27 02:15:41;;;;;;;5.25;2.75;;;18.60;99.90;;;;;;5067506;28;20925;-89
2022/04/27 02:18:08;;;;;;;3.78;2.45;;;18.60;99.90;;;;;;5080651;28;20442;-90
2022/04/27 02:20:35;;;;;;;4.90;3.78;;;18.70;99.90;;;;;;5058503;28;20470;-91
2022/04/27 02:23:02;;;;;;;5.63;3.22;;;18.80;99.90;;;;;;5066256;28;20473;-90
2022/04/27 02:25:29;;;;;;;6.13;3.20;;;18.80;99.90;;;;;;5086051;28;20385;-89
2022/04/27 02:27:56;;;;;;;5.57;2.97;;;18.80;99.90;;;;;;5076984;28;20389;-89
2022/04/27 02:30:23;;;;;;;6.17;3.23;;;18.80;99.90;;;;;;5079700;28;20479;-89
2022/04/27 02:32:50;;;;;;;5.77;3.10;;;18.80;99.90;;;;;;5081794;28;20465;-90
2022/04/27 02:35:18;;;;;;;5.07;3.53;;;18.90;99.90;;;;;;5054755;28;20402;-90
2022/04/27 02:37:45;;;;;;;6.72;3.75;;;18.90;99.90;;;;;;5078117;28;20521;-89
2022/04/27 02:40:12;;;;;;;6.43;3.83;;;18.80;99.90;;;;;;5086112;28;20563;-89
2022/04/27 02:42:39;;;;;;;6.13;4.10;;;18.70;99.90;;;;;;5084002;28;20735;-90
2022/04/27 02:45:07;;;;;;;9.40;4.80;;;18.70;99.90;;;;;;5069095;28;20386;-91
2022/04/27 02:47:34;;;;;;;9.57;5.35;;;18.60;99.90;;;;;;5068538;28;20370;-91
2022/04/27 02:52:48;;;;;;;7.88;4.80;;;18.60;99.90;;;;;;5069238;28;20380;-90
2022/04/27 02:55:16;;;;;;;8.30;4.55;;;18.60;99.90;;;;;;5053586;28;20386;-90
2022/04/27 02:57:42;;;;;;;7.43;4.72;;;18.50;99.90;;;;;;5069122;28;20389;-91
2022/04/27 03:00:10;;;;;;;8.68;4.70;;;18.60;99.90;;;;;;5083337;28;20928;-91
2022/04/27 03:02:40;;;;;;;10.40;5.00;;;18.60;99.90;;;;;;5082909;28;20851;-91
2022/04/27 03:05:07;;;;;;;9.38;4.78;;;18.70;99.90;;;;;;5072398;28;20931;-91
2022/04/27 03:07:34;;;;;;;6.32;4.53;;;18.70;99.90;;;;;;5060722;28;20886;-91
2022/04/27 03:10:01;;;;;;;7.10;3.80;;;18.80;99.90;;;;;;5074928;28;20394;-91
2022/04/27 03:12:28;;;;;;;5.80;4.13;;;18.80;99.90;;;;;;5078486;28;20384;-88
2022/04/27 03:14:55;;;;;;;7.53;4.17;;;18.80;99.90;;;;;;5088874;28;20418;-88
2022/04/27 03:17:22;;;;;;;7.30;4.27;;;18.80;99.90;;;;;;5058150;28;20431;-89
2022/04/27 03:19:49;;;;;;;8.73;4.37;;;18.80;99.90;;;;;;5078066;28;20903;-89
2022/04/27 03:22:16;;;;;;;7.67;4.63;;;18.70;99.90;;;;;;5078185;28;20389;-90
2022/04/27 03:24:43;;;;;;;7.23;4.33;;;18.70;99.90;;;;;;5064411;28;20384;-92
2022/04/27 03:27:10;;;;;;;8.47;6.20;;;18.70;99.90;;;;;;5071497;28;20402;-90
2022/04/27 03:29:37;;;;;;;9.52;7.32;;;18.70;99.90;;;;;;5052193;28;20394;-91
2022/04/27 03:32:05;;;;;;;13.63;8.70;;;18.70;99.90;;;;;;5070837;28;20388;-88
2022/04/27 03:34:32;;;;;;;18.75;14.60;;;18.80;99.90;;;;;;5069511;28;20402;-89
2022/04/27 03:36:59;;;;;;;19.77;15.70;;;18.90;99.90;;;;;;5076536;28;20377;-89
2022/04/27 03:39:26;;;;;;;18.23;16.13;;;18.90;99.90;;;;;;5081390;28;20985;-88
2022/04/27 03:41:53;;;;;;;21.50;18.05;;;19.00;99.90;;;;;;5072747;28;20366;-87
2022/04/27 03:44:21;;;;;;;25.73;21.95;;;19.00;99.90;;;;;;5057692;28;20390;-88
2022/04/27 03:46:48;;;;;;;23.88;21.20;;;18.90;99.90;;;;;;5087950;28;20728;-89
2022/04/27 03:49:15;;;;;;;21.63;18.20;;;18.90;99.90;;;;;;5085729;28;20421;-88
2022/04/27 03:51:42;;;;;;;23.33;17.75;;;18.90;99.90;;;;;;5079525;28;20388;-88
2022/04/27 03:54:09;;;;;;;20.88;15.98;;;19.00;99.90;;;;;;5076577;28;20383;-88
2022/04/27 03:56:36;;;;;;;31.55;28.17;;;19.00;99.90;;;;;;5077689;28;20422;-89
2022/04/27 03:59:02;;;;;;;34.53;30.92;;;19.00;99.90;;;;;;5080877;28;20454;-88
2022/04/27 04:01:29;;;;;;;44.90;40.22;;;19.00;99.90;;;;;;5078134;28;20886;-87
2022/04/27 04:03:58;;;;;;;41.78;37.03;;;19.00;99.90;;;;;;5080104;28;20436;-88
2022/04/27 04:06:25;;;;;;;43.35;38.75;;;18.80;99.90;;;;;;5077569;28;20381;-88
2022/04/27 04:08:52;;;;;;;23.55;21.05;;;18.80;99.90;;;;;;5063347;28;20409;-86
2022/04/27 04:11:20;;;;;;;22.92;18.35;;;18.70;99.90;;;;;;5084290;28;20367;-87
2022/04/27 04:13:47;;;;;;;20.42;17.73;;;18.70;99.90;;;;;;5093235;28;20390;-89
2022/04/27 04:16:13;;;;;;;22.50;20.10;;;18.70;99.90;;;;;;5080499;28;20802;-87
2022/04/27 04:18:40;;;;;;;27.77;24.83;;;18.60;99.90;;;;;;5076677;28;20408;-87
2022/04/27 04:21:07;;;;;;;29.73;26.58;;;18.60;99.90;;;;;;5055769;28;20431;-89
2022/04/27 04:23:34;;;;;;;31.92;28.48;;;18.60;99.90;;;;;;5076388;28;20364;-88
2022/04/27 04:28:47;;;;;;;31.80;26.67;;;18.50;99.90;;;;;;5078484;28;20713;-88
2022/04/27 04:31:14;;;;;;;29.03;25.93;;;18.50;99.90;;;;;;5076668;28;20722;-87
2022/04/27 04:33:41;;;;;;;31.45;27.95;;;18.50;99.90;;;;;;5075271;28;20434;-88
2022/04/27 04:36:09;;;;;;;36.55;32.58;;;18.40;99.90;;;;;;5076592;28;20380;-89
2022/04/27 04:38:36;;;;;;;39.97;34.63;;;18.30;99.90;;;;;;5078574;28;20420;-89
2022/04/27 04:41:03;;;;;;;37.72;33.22;;;18.20;99.90;;;;;;5077760;28;20437;-90
2022/04/27 04:43:33;;;;;;;34.53;28.35;;;18.20;99.90;;;;;;5077185;28;20385;-90
2022/04/27 04:46:01;;;;;;;33.47;28.35;;;18.10;99.90;;;;;;5078609;28;20369;-90
2022/04/27 04:48:28;;;;;;;33.80;30.13;;;18.20;99.90;;;;;;5076978;28;20477;-88
2022/04/27 04:50:55;;;;;;;30.67;27.23;;;18.20;99.90;;;;;;5077743;28;20376;-87
2022/04/27 04:53:22;;;;;;;29.23;25.73;;;18.20;99.90;;;;;;5077550;28;20770;-96
2022/04/27 04:55:50;;;;;;;22.23;17.17;;;18.10;99.90;;;;;;5078476;28;20369;-87
2022/04/27 04:58:17;;;;;;;14.18;12.05;;;18.10;99.90;;;;;;5058089;28;20509;-89
2022/04/27 05:00:45;;;;;;;15.52;11.75;;;18.10;99.90;;;;;;5062420;28;20386;-88
2022/04/27 05:03:12;;;;;;;18.17;14.55;;;18.00;99.90;;;;;;5076949;28;20395;-87
2022/04/27 05:05:40;;;;;;;17.80;15.90;;;18.00;99.90;;;;;;5076672;28;20455;-88
2022/04/27 05:08:08;;;;;;;22.30;16.83;;;18.00;99.90;;;;;;5059934;28;20399;-88
2022/04/27 05:10:36;;;;;;;25.23;20.60;;;17.90;99.90;;;;;;5078042;28;20384;-88
2022/04/27 05:13:03;;;;;;;28.10;22.05;;;17.90;99.90;;;;;;5079611;28;20371;-88
2022/04/27 05:15:31;;;;;;;39.80;31.05;;;18.00;99.90;;;;;;5082824;28;20428;-89
2022/04/27 05:17:58;;;;;;;32.53;25.40;;;18.00;99.90;;;;;;5082062;28;20414;-89
2022/04/27 05:20:25;;;;;;;33.13;25.75;;;17.90;99.90;;;;;;5075544;28;20927;-88
2022/04/27 05:22:52;;;;;;;32.42;24.40;;;18.00;99.90;;;;;;5076465;28;20882;-89
2022/04/27 05:25:19;;;;;;;31.00;25.13;;;18.00;99.90;;;;;;5078119;28;20383;-87
2022/04/27 05:27:46;;;;;;;30.77;23.55;;;18.10;99.90;;;;;;5077574;28;20415;-89
2022/04/27 05:32:58;;;;;;;23.07;17.83;;;18.20;99.90;;;;;;5076791;28;20722;-88
2022/04/27 05:35:26;;;;;;;22.10;16.88;;;18.20;99.90;;;;;;5075278;28;20480;-88
2022/04/27 05:37:53;;;;;;;17.20;14.32;;;18.20;99.90;;;;;;5075201;28;20401;-88
2022/04/27 05:40:20;;;;;;;19.48;15.30;;;18.20;99.90;;;;;;5076713;28;20376;-88
2022/04/27 05:42:48;;;;;;;19.13;15.43;;;18.20;99.90;;;;;;5074414;28;20392;-88
2022/04/27 05:45:15;;;;;;;18.93;15.37;;;18.20;99.90;;;;;;5075605;28;20374;-88
2022/04/27 05:47:44;;;;;;;20.60;15.52;;;18.20;99.90;;;;;;5075178;28;20431;-88
2022/04/27 05:50:11;;;;;;;18.37;16.37;;;18.20;99.90;;;;;;5074392;28;20368;-88
2022/04/27 05:52:52;;;;;;;21.03;14.70;;;18.20;99.90;;;;;;5079066;28;20427;-88
2022/04/27 05:55:23;;;;;;;16.67;14.20;;;18.20;99.90;;;;;;5063329;28;20382;-88
2022/04/27 05:57:50;;;;;;;18.33;14.25;;;18.30;99.90;;;;;;5076681;28;20761;-91
2022/04/27 06:00:19;;;;;;;17.02;13.88;;;18.20;99.90;;;;;;5090418;28;20403;-87
2022/04/27 06:02:47;;;;;;;16.95;13.23;;;18.20;99.90;;;;;;5078925;28;20423;-86
2022/04/27 06:05:13;;;;;;;16.35;14.40;;;18.30;99.90;;;;;;5082150;28;20439;-82
2022/04/27 06:07:41;;;;;;;17.77;14.98;;;18.30;99.90;;;;;;5079480;28;20404;-86
2022/04/27 06:10:09;;;;;;;23.40;17.80;;;18.40;99.90;;;;;;5085598;28;20954;-86
2022/04/27 06:12:46;;;;;;;21.55;18.50;;;18.40;99.90;;;;;;5088893;28;20381;-84
2022/04/27 06:15:14;;;;;;;24.08;18.88;;;18.40;99.90;;;;;;5075454;28;20384;-86
2022/04/27 06:17:41;;;;;;;27.13;21.10;;;18.40;99.90;;;;;;5060900;28;20397;-85
2022/04/27 06:20:09;;;;;;;26.52;20.65;;;18.40;99.90;;;;;;5079827;28;20388;-87
2022/04/27 06:22:36;;;;;;;27.83;21.92;;;18.30;99.90;;;;;;5081301;28;20400;-86
2022/04/27 06:25:07;;;;;;;27.10;21.85;;;18.20;99.90;;;;;;5077317;28;20439;-86
2022/04/27 06:27:34;;;;;;;30.38;23.08;;;18.20;99.90;;;;;;5081021;28;20376;-87
2022/04/27 06:30:02;;;;;;;32.67;26.27;;;18.20;99.90;;;;;;5079648;28;20877;-88
2022/04/27 06:32:32;;;;;;;33.77;26.33;;;18.30;99.90;;;;;;5079880;28;20898;-86
2022/04/27 06:35:01;;;;;;;31.90;24.98;;;18.30;99.90;;;;;;5079759;28;20400;-86
2022/04/27 06:37:28;;;;;;;33.45;25.10;;;18.40;99.90;;;;;;5077910;28;20465;-87
2022/04/27 06:39:55;;;;;;;32.67;23.58;;;18.40;99.90;;;;;;5078345;28;20391;-86
2022/04/27 06:42:23;;;;;;;32.10;22.70;;;18.40;99.90;;;;;;5081838;28;20368;-86
2022/04/27 06:44:50;;;;;;;28.55;20.55;;;18.30;99.90;;;;;;5076049;28;20412;-85
2022/04/27 06:47:17;;;;;;;32.38;21.70;;;18.30;99.90;;;;;;5083455;28;20722;-84
2022/04/27 06:49:44;;;;;;;30.50;22.33;;;18.50;99.90;;;;;;5083653;28;20382;-90
2022/04/27 06:52:11;;;;;;;30.55;21.77;;;18.60;99.90;;;;;;5079638;28;20380;-85
2022/04/27 06:54:38;;;;;;;27.55;21.25;;;18.70;99.90;;;;;;5072919;28;20386;-85
2022/04/27 06:57:05;;;;;;;25.85;20.67;;;18.70;99.90;;;;;;5089694;28;20372;-86
2022/04/27 06:59:32;;;;;;;27.70;21.67;;;18.80;99.90;;;;;;5089836;28;20400;-85
2022/04/27 07:01:59;;;;;;;27.08;21.13;;;18.80;99.90;;;;;;5082943;28;20401;-88
2022/04/27 07:04:27;;;;;;;25.30;20.73;;;18.90;99.90;;;;;;5068331;28;20392;-85
2022/04/27 07:06:54;;;;;;;24.52;17.40;;;18.90;99.90;;;;;;5052911;28;20386;-87
2022/04/27 07:09:21;;;;;;;20.15;17.02;;;18.90;99.90;;;;;;5071145;28;20378;-85
2022/04/27 07:11:48;;;;;;;20.90;16.85;;;18.90;99.90;;;;;;5071375;28;20389;-88
2022/04/27 07:14:16;;;;;;;21.73;17.03;;;18.90;99.90;;;;;;5075927;28;20388;-87
2022/04/27 07:16:44;;;;;;;21.48;17.70;;;18.90;99.90;;;;;;5077965;28;20442;-87
2022/04/27 07:19:11;;;;;;;21.70;17.83;;;18.90;99.90;;;;;;5103361;28;20473;-87
2022/04/27 07:21:38;;;;;;;20.98;17.00;;;18.80;99.90;;;;;;5095164;28;20376;-87
2022/04/27 07:24:06;;;;;;;24.38;18.38;;;18.70;99.90;;;;;;5072757;28;20752;-87
2022/04/27 07:26:33;;;;;;;25.42;19.45;;;18.70;99.90;;;;;;5090724;28;20446;-86
2022/04/27 07:29:00;;;;;;;24.95;20.00;;;18.70;99.90;;;;;;5082109;28;20404;-85
2022/04/27 07:31:28;;;;;;;26.85;19.98;;;18.60;99.90;;;;;;5074332;28;20911;-83
2022/04/27 07:33:55;;;;;;;27.98;21.75;;;18.60;99.90;;;;;;5071184;28;20489;-87
2022/04/27 07:36:22;;;;;;;26.48;21.23;;;18.50;99.90;;;;;;5081958;28;20500;-85
2022/04/27 07:38:48;;;;;;;26.40;20.90;;;18.50;99.90;;;;;;5070696;28;20424;-86
2022/04/27 07:41:15;;;;;;;27.55;20.92;;;18.40;99.90;;;;;;5087144;28;20459;-87
2022/04/27 07:43:42;;;;;;;26.75;21.55;;;18.40;99.90;;;;;;5075953;28;20424;-91
2022/04/27 07:46:11;;;;;;;26.25;20.80;;;18.30;99.90;;;;;;5087588;28;20387;-89
2022/04/27 07:48:38;;;;;;;27.25;21.35;;;18.30;99.90;;;;;;5081900;28;20465;-85
2022/04/27 07:51:06;;;;;;;27.95;20.40;;;18.30;99.90;;;;;;5089230;28;20430;-85
2022/04/27 07:53:33;;;;;;;26.50;20.90;;;18.20;99.90;;;;;;5083409;28;20473;-83
2022/04/27 07:56:00;;;;;;;29.30;22.05;;;18.20;99.90;;;;;;5074641;28;20388;-83
2022/04/27 07:58:27;;;;;;;31.13;22.95;;;18.20;99.90;;;;;;5090550;28;21232;-95
2022/04/27 08:00:54;;;;;;;28.95;22.05;;;18.10;99.90;;;;;;5088615;28;20417;-87
2022/04/27 08:03:21;;;;;;;29.52;23.20;;;18.10;99.90;;;;;;5071968;28;20758;-88
2022/04/27 08:05:48;;;;;;;30.23;23.25;;;18.10;99.90;;;;;;5073781;28;20402;-86
2022/04/27 08:08:15;;;;;;;42.72;32.35;;;18.10;99.90;;;;;;5082731;28;20368;-87
2022/04/27 08:10:43;;;;;;;85.57;68.22;;;18.10;99.90;;;;;;5088793;28;20388;-86
2022/04/27 08:13:10;;;;;;;74.18;56.72;;;18.00;99.90;;;;;;5081515;28;20442;-87
2022/04/27 08:15:37;;;;;;;57.03;46.72;;;18.00;99.90;;;;;;5072379;28;20386;-86
2022/04/27 08:18:07;;;;;;;58.95;48.45;;;18.00;99.90;;;;;;5086814;28;20894;-83
2022/04/27 08:23:33;;;;;;;59.88;48.50;;;17.90;99.90;;;;;;5087467;28;20994;-84
2022/04/27 08:26:02;;;;;;;58.83;44.22;;;17.90;99.90;;;;;;5085903;28;20393;-83
2022/04/27 08:28:29;;;;;;;47.80;39.20;;;17.80;99.90;;;;;;5077378;28;20457;-84
2022/04/27 08:30:58;;;;;;;48.58;38.42;;;17.80;99.90;;;;;;5075951;28;20390;-84
2022/04/27 08:33:25;;;;;;;44.72;35.35;;;17.80;99.90;;;;;;5062509;28;20927;-84
2022/04/27 08:35:57;;;;;;;42.90;34.72;;;17.80;99.90;;;;;;5076667;28;20562;-95
2022/04/27 08:38:25;;;;;;;42.50;33.13;;;17.80;99.90;;;;;;5086760;28;20410;-86
2022/04/27 08:40:52;;;;;;;42.15;31.13;;;17.80;99.90;;;;;;5067016;28;20396;-85
2022/04/27 08:43:20;;;;;;;40.30;30.33;;;17.80;99.90;;;;;;5067614;28;20396;-84
2022/04/27 08:45:47;;;;;;;36.75;28.27;;;17.80;99.90;;;;;;5072055;28;20425;-86
2022/04/27 08:48:21;;;;;;;40.13;29.75;;;17.70;99.90;;;;;;5078661;28;20877;-83
2022/04/27 08:50:49;;;;;;;34.90;26.77;;;17.70;99.90;;;;;;5082531;28;20372;-83
2022/04/27 08:53:16;;;;;;;36.03;27.58;;;17.70;99.90;;;;;;5086598;28;20388;-83
2022/04/27 08:55:44;;;;;;;30.25;24.35;;;17.80;99.90;;;;;;5075497;28;20440;-87
2022/04/27 08:58:20;;;;;;;33.95;26.05;;;17.80;99.90;;;;;;5067358;28;20502;-82
2022/04/27 09:00:48;;;;;;;35.17;27.02;;;17.70;99.90;;;;;;5072165;28;20408;-84
2022/04/27 09:03:22;;;;;;;34.45;25.90;;;17.70;99.90;;;;;;5080180;28;20417;-87
2022/04/27 09:05:54;;;;;;;36.67;26.98;;;17.70;99.90;;;;;;5082398;28;20422;-86
2022/04/27 09:08:24;;;;;;;30.52;24.17;;;17.80;99.90;;;;;;5065133;28;20420;-85
2022/04/27 09:11:10;;;;;;;33.10;25.17;;;17.80;99.90;;;;;;5067905;28;20392;-85
2022/04/27 09:13:37;;;;;;;33.88;26.63;;;17.80;99.90;;;;;;5067097;28;20443;-88
2022/04/27 09:16:05;;;;;;;32.75;26.08;;;17.80;99.90;;;;;;5067527;28;20382;-86
2022/04/27 09:21:56;;;;;;;38.92;28.73;;;17.90;99.90;;;;;;5072810;28;20476;-85
2022/04/27 09:24:23;;;;;;;34.78;26.73;;;17.80;99.90;;;;;;5082250;28;20369;-86
2022/04/27 09:27:14;;;;;;;35.42;27.13;;;17.90;99.90;;;;;;5086071;28;20465;-87
2022/04/27 09:29:41;;;;;;;44.73;31.53;;;17.90;99.90;;;;;;5076845;28;20392;-85
2022/04/27 09:32:14;;;;;;;52.10;34.33;;;17.90;99.90;;;;;;5091260;28;20724;-87
2022/04/27 09:34:48;;;;;;;57.35;35.20;;;17.70;99.90;;;;;;5079235;28;20506;-85
2022/04/27 09:37:21;;;;;;;55.13;34.77;;;17.70;99.90;;;;;;5070575;28;20392;-87
2022/04/27 09:40:12;;;;;;;64.13;36.83;;;17.70;99.90;;;;;;5087597;28;20558;-87
2022/04/27 09:42:46;;;;;;;65.30;36.20;;;17.70;99.90;;;;;;5090877;28;20365;-85
2022/04/27 09:45:26;;;;;;;52.45;34.30;;;17.70;99.90;;;;;;5090600;28;20390;-84
2022/04/27 09:48:03;;;;;;;53.92;33.72;;;17.60;99.90;;;;;;5072593;28;20469;-86
2022/04/27 09:50:58;;;;;;;57.93;33.87;;;17.60;99.90;;;;;;5080230;28;20372;-86
2022/04/27 09:53:26;;;;;;;52.13;33.40;;;17.60;99.90;;;;;;5084223;28;20377;-85
2022/04/27 09:55:59;;;;;;;52.58;32.88;;;17.60;99.90;;;;;;5090686;28;20379;-85
2022/04/27 09:58:29;;;;;;;58.75;34.45;;;17.60;99.90;;;;;;5091481;28;20433;-85
2022/04/27 10:01:04;;;;;;;56.40;34.05;;;17.50;99.90;;;;;;5078518;28;21048;-88
2022/04/27 10:03:36;;;;;;;60.38;34.40;;;17.50;99.90;;;;;;5085620;28;20388;-85
2022/04/27 10:06:04;;;;;;;54.03;32.80;;;17.50;99.90;;;;;;5090049;28;20396;-86
2022/04/27 10:08:34;;;;;;;57.80;34.40;;;17.50;99.90;;;;;;5085500;28;20431;-87
2022/04/27 10:11:02;;;;;;;59.00;34.80;;;17.40;99.90;;;;;;5109988;28;20448;-86
2022/04/27 10:13:29;;;;;;;61.45;34.72;;;17.50;99.90;;;;;;5089631;28;20469;-86
2022/04/27 10:15:56;;;;;;;62.22;34.55;;;17.50;99.90;;;;;;5082837;28;20416;-86
2022/04/27 10:18:23;;;;;;;66.88;35.65;;;17.50;99.90;;;;;;5083165;28;20768;-85
2022/04/27 10:20:51;;;;;;;63.47;35.35;;;17.50;99.90;;;;;;5087665;28;20430;-86
2022/04/27 10:23:31;;;;;;;63.90;35.35;;;17.50;99.90;;;;;;5085102;28;20471;-85
2022/04/27 10:26:28;;;;;;;67.38;37.22;;;17.50;99.90;;;;;;5078227;28;20791;-84
2022/04/27 10:28:57;;;;;;;61.50;36.03;;;17.50;99.90;;;;;;5087645;28;20383;-84
2022/04/27 10:31:43;;;;;;;50.80;33.15;;;17.50;99.90;;;;;;5054717;28;20370;-84
2022/04/27 10:34:20;;;;;;;58.80;35.38;;;17.50;99.90;;;;;;5077205;28;20404;-85
2022/04/27 10:36:51;;;;;;;58.37;35.23;;;17.60;99.90;;;;;;5091360;28;20403;-85
2022/04/27 10:39:19;;;;;;;51.60;32.53;;;17.60;99.90;;;;;;5091231;28;20408;-85
2022/04/27 10:41:56;;;;;;;49.95;31.30;;;17.60;99.90;;;;;;5089846;28;20377;-84
2022/04/27 10:44:46;;;;;;;43.90;29.45;;;17.60;99.90;;;;;;5073265;28;20393;-85
2022/04/27 10:47:20;;;;;;;41.05;28.23;;;17.70;99.90;;;;;;5008578;28;20469;-85
2022/04/27 10:50:20;;;;;;;47.45;30.88;;;17.70;99.90;;;;;;5008216;28;20391;-84
2022/04/27 10:52:52;;;;;;;48.40;31.35;;;17.70;99.90;;;;;;5009550;28;20387;-85
2022/04/27 10:55:43;;;;;;;54.05;32.72;;;17.70;99.90;;;;;;5007032;28;20425;-84
2022/04/27 10:58:14;;;;;;;58.60;34.45;;;17.60;99.90;;;;;;5025140;28;20397;-85
2022/04/27 11:01:02;;;;;;;59.50;35.47;;;17.50;99.90;;;;;;5013002;28;20409;-85
2022/04/27 11:03:39;;;;;;;59.40;35.20;;;17.50;99.90;;;;;;5010808;28;20432;-85
2022/04/27 11:06:11;;;;;;;59.10;36.17;;;17.50;99.90;;;;;;5018997;28;20389;-85
2022/04/27 11:08:52;;;;;;;60.17;36.80;;;17.40;99.90;;;;;;5024170;28;20433;-84
2022/04/27 11:11:24;;;;;;;59.10;35.80;;;17.40;99.90;;;;;;5008542;28;20403;-85
2022/04/27 11:13:52;;;;;;;55.07;34.90;;;17.40;99.90;;;;;;5008493;28;20383;-83
2022/04/27 11:16:19;;;;;;;51.90;33.47;;;17.50;99.90;;;;;;5008241;28;20384;-85
2022/04/27 11:18:52;;;;;;;55.97;34.63;;;17.50;99.90;;;;;;5007548;28;20421;-84
2022/04/27 11:21:20;;;;;;;55.72;33.95;;;17.50;99.90;;;;;;5018487;28;20768;-85
2022/04/27 11:23:48;;;;;;;52.85;34.28;;;17.50;99.90;;;;;;5037769;28;21115;-84
2022/04/27 11:26:15;;;;;;;43.05;29.98;;;17.50;99.90;;;;;;5069445;28;20416;-83
2022/04/27 11:28:46;;;;;;;43.92;30.13;;;17.50;99.90;;;;;;5068818;28;20383;-85
2022/04/27 11:31:15;;;;;;;37.28;27.67;;;17.50;99.90;;;;;;5084502;28;20428;-84
2022/04/27 11:33:42;;;;;;;41.20;29.60;;;17.60;99.90;;;;;;5088615;28;20419;-84
2022/04/27 11:36:25;;;;;;;42.03;29.58;;;17.50;99.90;;;;;;5088736;28;20455;-83
2022/04/27 11:38:53;;;;;;;43.17;30.15;;;17.50;99.90;;;;;;5088019;28;20393;-83
2022/04/27 11:41:23;;;;;;;41.95;29.65;;;17.50;99.90;;;;;;5086416;28;20484;-84
2022/04/27 11:43:53;;;;;;;43.30;29.90;;;17.40;99.90;;;;;;5071042;28;20965;-84
2022/04/27 11:46:20;;;;;;;42.08;28.25;;;17.40;99.90;;;;;;5068057;28;20861;-84
2022/04/27 11:48:51;;;;;;;34.95;25.00;;;17.40;99.90;;;;;;5073255;28;20477;-84
2022/04/27 11:51:18;;;;;;;35.20;27.42;;;17.40;99.90;;;;;;5071222;28;20804;-84
2022/04/27 11:53:49;;;;;;;32.95;23.60;;;17.40;99.90;;;;;;5068813;28;20378;-85
2022/04/27 11:56:18;;;;;;;31.95;23.67;;;17.50;99.90;;;;;;5067912;28;20374;-82
2022/04/27 11:58:46;;;;;;;28.33;22.55;;;17.50;99.90;;;;;;5067940;28;20402;-85
2022/04/27 12:01:23;;;;;;;28.67;23.13;;;17.50;99.90;;;;;;5067749;28;20382;-84
2022/04/27 12:03:51;;;;;;;29.05;22.08;;;17.50;99.90;;;;;;5069297;28;20385;-85
2022/04/27 12:06:26;;;;;;;32.60;23.93;;;17.40;99.90;;;;;;5080679;28;20376;-86
2022/04/27 12:08:59;;;;;;;25.85;20.58;;;17.40;99.90;;;;;;5088959;28;20463;-84
2022/04/27 12:11:26;;;;;;;29.77;24.37;;;17.40;99.90;;;;;;5079068;28;20467;-85
2022/04/27 12:13:56;;;;;;;32.10;24.60;;;17.40;99.90;;;;;;5087871;28;20368;-84
2022/04/27 12:16:30;;;;;;;32.33;24.25;;;17.40;99.90;;;;;;5087787;28;20376;-84
2022/04/27 12:18:59;;;;;;;32.90;24.67;;;17.40;99.90;;;;;;5073014;28;20406;-84
2022/04/27 12:21:29;;;;;;;37.42;27.67;;;17.50;99.90;;;;;;5067822;28;20410;-84
2022/04/27 12:23:56;;;;;;;40.67;29.15;;;17.50;99.90;;;;;;5078308;28;20390;-84
2022/04/27 12:26:27;;;;;;;37.55;27.45;;;17.50;99.90;;;;;;5078171;28;20381;-83
2022/04/27 12:29:29;;;;;;;35.00;26.38;;;17.50;99.90;;;;;;5088613;28;20451;-84
2022/04/27 12:31:56;;;;;;;31.00;23.55;;;17.50;99.90;;;;;;4993001;28;20393;-83
2022/04/27 12:39:54;;;;;;;41.03;28.30;;;17.50;99.90;;;;;;4999951;28;21047;-84
2022/04/27 12:42:21;;;;;;;47.50;30.10;;;17.50;99.90;;;;;;4994452;28;20871;-84
2022/04/27 12:44:48;;;;;;;46.28;30.88;;;17.50;99.90;;;;;;5002760;28;20462;-84
2022/04/27 12:47:16;;;;;;;55.83;35.63;;;17.50;99.90;;;;;;5005587;28;20473;-85
2022/04/27 12:49:45;;;;;;;54.50;34.75;;;17.40;99.90;;;;;;4969781;28;20411;-85
2022/04/27 12:52:29;;;;;;;50.47;33.60;;;17.40;99.90;;;;;;4986489;28;20381;-84
2022/04/27 12:55:05;;;;;;;43.05;31.10;;;17.50;99.90;;;;;;4988769;28;21010;-84
2022/04/27 12:57:48;;;;;;;48.10;31.53;;;17.50;99.90;;;;;;4986181;28;20452;-84
2022/04/27 13:00:18;;;;;;;43.65;30.42;;;17.40;99.90;;;;;;4986680;28;20408;-84
2022/04/27 13:02:45;;;;;;;51.30;34.40;;;17.40;99.90;;;;;;4986819;28;20515;-85
2022/04/27 13:05:13;;;;;;;51.33;33.75;;;17.40;99.90;;;;;;4987495;28;20384;-84
2022/04/27 13:07:40;;;;;;;47.25;32.42;;;17.40;99.90;;;;;;4986329;28;20409;-84